sensor_id;sensor_type;location;lat;lon;timestamp;pressure;altitude;pressure_sealevel;temperature;humidity
47811;BME280;33575;52.600;7.318;2022-09-27T00:00:57;99200.09;;;11.40;100.00
47811;BME280;33575;52.600;7.318;2022-09-27T00:03:22;99200.71;;;11.44;100.00
47811;BME280;33575;52.600;7.318;2022-09-27T00:06:00;99202.68;;;11.30;100.00
47811;BME280;33575;52.600;7.318;2022-09-27T00:08:23;99205.37;;;11.36;100.00
47811;BME280;33575;52.600;7.318;2022-09-27T00:10:58;99203.25;;;11.46;100.00
47811;BME280;33575;52.600;7.318;2022-09-27T00:13:24;99201.35;;;11.51;100.00
47811;BME280;33575;52.600;7.318;2022-09-27T00:15:56;99206.13;;;11.44;99.83
47811;BME280;33575;52.600;7.318;2022-09-27T00:18:26;99202.95;;;11.46;99.93
47811;BME280;33575;52.600;7.318;2022-09-27T00:23:27;99204.00;;;11.50;99.78
47811;BME280;33575;52.600;7.318;2022-09-27T00:25:58;99202.84;;;11.41;100.00
47811;BME280;33575;52.600;7.318;2022-09-27T00:28:28;99203.79;;;11.45;99.92
47811;BME280;33575;52.600;7.318;2022-09-27T00:30:59;99200.64;;;11.49;99.64
47811;BME280;33575;52.600;7.318;2022-09-27T00:33:29;99204.24;;;11.49;99.68
47811;BME280;33575;52.600;7.318;2022-09-27T00:36:03;99206.60;;;11.39;99.84
47811;BME280;33575;52.600;7.318;2022-09-27T00:38:30;99205.45;;;11.42;99.47
47811;BME280;33575;52.600;7.318;2022-09-27T00:41:00;99205.33;;;11.50;99.49
47811;BME280;33575;52.600;7.318;2022-09-27T00:46:03;99203.31;;;11.62;99.12
47811;BME280;33575;52.600;7.318;2022-09-27T00:48:34;99203.79;;;11.62;98.95
47811;BME280;33575;52.600;7.318;2022-09-27T00:51:04;99203.60;;;11.60;98.85
47811;BME280;33575;52.600;7.318;2022-09-27T00:53:36;99206.65;;;11.52;99.07
47811;BME280;33575;52.600;7.318;2022-09-27T00:56:07;99206.50;;;11.51;98.99
47811;BME280;33575;52.600;7.318;2022-09-27T00:58:37;99208.64;;;11.49;99.03
47811;BME280;33575;52.600;7.318;2022-09-27T01:01:07;99210.42;;;11.46;99.11
47811;BME280;33575;52.600;7.318;2022-09-27T01:03:39;99213.09;;;11.36;99.16
47811;BME280;33575;52.600;7.318;2022-09-27T01:06:07;99211.90;;;11.33;99.56
47811;BME280;33575;52.600;7.318;2022-09-27T01:08:36;99213.80;;;11.30;99.46
47811;BME280;33575;52.600;7.318;2022-09-27T01:11:13;99213.01;;;11.20;99.42
47811;BME280;33575;52.600;7.318;2022-09-27T01:13:41;99216.66;;;11.26;99.47
47811;BME280;33575;52.600;7.318;2022-09-27T01:16:12;99220.66;;;11.27;99.47
47811;BME280;33575;52.600;7.318;2022-09-27T01:18:44;99219.30;;;11.25;99.19
47811;BME280;33575;52.600;7.318;2022-09-27T01:23:53;99217.10;;;11.27;99.39
47811;BME280;33575;52.600;7.318;2022-09-27T01:26:12;99217.43;;;11.30;99.05
47811;BME280;33575;52.600;7.318;2022-09-27T01:28:50;99215.83;;;11.22;98.89
47811;BME280;33575;52.600;7.318;2022-09-27T01:31:15;99215.35;;;11.19;99.01
47811;BME280;33575;52.600;7.318;2022-09-27T01:33:45;99222.19;;;11.21;98.80
47811;BME280;33575;52.600;7.318;2022-09-27T01:36:21;99221.55;;;11.11;98.65
47811;BME280;33575;52.600;7.318;2022-09-27T01:38:50;99225.06;;;11.13;98.94
47811;BME280;33575;52.600;7.318;2022-09-27T01:41:22;99221.64;;;11.14;98.93
47811;BME280;33575;52.600;7.318;2022-09-27T01:43:47;99224.80;;;11.06;98.40
47811;BME280;33575;52.600;7.318;2022-09-27T01:46:19;99223.28;;;10.98;98.94
47811;BME280;33575;52.600;7.318;2022-09-27T01:48:47;99225.59;;;10.98;98.85
47811;BME280;33575;52.600;7.318;2022-09-27T01:51:17;99227.16;;;10.94;98.99
47811;BME280;33575;52.600;7.318;2022-09-27T01:53:47;99224.65;;;10.90;98.99
47811;BME280;33575;52.600;7.318;2022-09-27T01:56:18;99226.30;;;10.83;99.08
47811;BME280;33575;52.600;7.318;2022-09-27T01:58:49;99223.60;;;10.85;98.97
47811;BME280;33575;52.600;7.318;2022-09-27T02:01:19;99224.94;;;10.75;98.87
47811;BME280;33575;52.600;7.318;2022-09-27T02:03:49;99222.65;;;10.67;98.90
47811;BME280;33575;52.600;7.318;2022-09-27T02:06:20;99221.58;;;10.63;99.19
47811;BME280;33575;52.600;7.318;2022-09-27T02:08:51;99221.98;;;10.66;99.12
47811;BME280;33575;52.600;7.318;2022-09-27T02:11:19;99221.74;;;10.61;99.22
47811;BME280;33575;52.600;7.318;2022-09-27T02:13:52;99221.89;;;10.59;99.20
47811;BME280;33575;52.600;7.318;2022-09-27T02:16:24;99220.29;;;10.56;99.15
47811;BME280;33575;52.600;7.318;2022-09-27T02:18:54;99222.81;;;10.52;99.16
47811;BME280;33575;52.600;7.318;2022-09-27T02:21:24;99223.32;;;10.42;99.64
47811;BME280;33575;52.600;7.318;2022-09-27T02:23:53;99224.07;;;10.34;100.00
47811;BME280;33575;52.600;7.318;2022-09-27T02:26:25;99230.77;;;10.36;99.93
47811;BME280;33575;52.600;7.318;2022-09-27T02:28:56;99233.21;;;10.38;99.62
47811;BME280;33575;52.600;7.318;2022-09-27T02:31:23;99231.74;;;10.37;99.71
47811;BME280;33575;52.600;7.318;2022-09-27T02:33:58;99234.63;;;10.35;99.72
47811;BME280;33575;52.600;7.318;2022-09-27T02:36:24;99235.66;;;10.35;99.65
47811;BME280;33575;52.600;7.318;2022-09-27T02:38:54;99234.63;;;10.31;99.93
47811;BME280;33575;52.600;7.318;2022-09-27T02:41:25;99230.56;;;10.27;99.84
47811;BME280;33575;52.600;7.318;2022-09-27T02:43:57;99231.86;;;10.24;100.00
47811;BME280;33575;52.600;7.318;2022-09-27T02:46:38;99229.47;;;10.28;99.95
47811;BME280;33575;52.600;7.318;2022-09-27T02:49:03;99230.11;;;10.28;99.83
47811;BME280;33575;52.600;7.318;2022-09-27T02:51:35;99229.00;;;10.27;99.71
47811;BME280;33575;52.600;7.318;2022-09-27T02:54:07;99228.89;;;10.23;99.70
47811;BME280;33575;52.600;7.318;2022-09-27T02:56:33;99230.15;;;10.09;100.00
47811;BME280;33575;52.600;7.318;2022-09-27T02:59:05;99227.53;;;10.19;100.00
47811;BME280;33575;52.600;7.318;2022-09-27T03:01:35;99229.96;;;10.24;99.74
47811;BME280;33575;52.600;7.318;2022-09-27T03:04:06;99228.51;;;10.21;99.64
47811;BME280;33575;52.600;7.318;2022-09-27T03:06:31;99227.82;;;10.19;99.94
47811;BME280;33575;52.600;7.318;2022-09-27T03:09:00;99226.69;;;10.15;100.00
47811;BME280;33575;52.600;7.318;2022-09-27T03:11:31;99225.65;;;10.11;100.00
47811;BME280;33575;52.600;7.318;2022-09-27T03:14:06;99228.93;;;10.06;100.00
47811;BME280;33575;52.600;7.318;2022-09-27T03:16:32;99238.71;;;10.11;100.00
47811;BME280;33575;52.600;7.318;2022-09-27T03:19:02;99242.07;;;10.12;100.00
47811;BME280;33575;52.600;7.318;2022-09-27T03:21:33;99245.22;;;10.07;100.00
47811;BME280;33575;52.600;7.318;2022-09-27T03:24:04;99242.94;;;9.96;100.00
47811;BME280;33575;52.600;7.318;2022-09-27T03:26:34;99242.55;;;9.99;100.00
47811;BME280;33575;52.600;7.318;2022-09-27T03:29:04;99236.79;;;9.99;100.00
47811;BME280;33575;52.600;7.318;2022-09-27T03:31:35;99235.18;;;9.89;100.00
47811;BME280;33575;52.600;7.318;2022-09-27T03:34:06;99231.55;;;9.91;100.00
47811;BME280;33575;52.600;7.318;2022-09-27T03:36:36;99228.78;;;9.86;100.00
47811;BME280;33575;52.600;7.318;2022-09-27T03:39:07;99227.59;;;9.90;100.00
47811;BME280;33575;52.600;7.318;2022-09-27T03:41:37;99232.80;;;9.93;100.00
47811;BME280;33575;52.600;7.318;2022-09-27T03:44:08;99234.11;;;9.82;100.00
47811;BME280;33575;52.600;7.318;2022-09-27T03:46:38;99237.56;;;9.85;100.00
47811;BME280;33575;52.600;7.318;2022-09-27T03:49:09;99240.15;;;9.82;100.00
47811;BME280;33575;52.600;7.318;2022-09-27T03:51:39;99240.03;;;9.80;100.00
47811;BME280;33575;52.600;7.318;2022-09-27T03:54:10;99241.69;;;9.67;100.00
47811;BME280;33575;52.600;7.318;2022-09-27T03:56:41;99238.84;;;9.55;100.00
47811;BME280;33575;52.600;7.318;2022-09-27T03:59:11;99235.27;;;9.57;100.00
47811;BME280;33575;52.600;7.318;2022-09-27T04:01:42;99232.50;;;9.67;100.00
47811;BME280;33575;52.600;7.318;2022-09-27T04:04:12;99235.40;;;9.76;100.00
47811;BME280;33575;52.600;7.318;2022-09-27T04:06:43;99235.91;;;9.83;100.00
47811;BME280;33575;52.600;7.318;2022-09-27T04:09:13;99232.68;;;9.87;99.89
47811;BME280;33575;52.600;7.318;2022-09-27T04:11:44;99229.44;;;9.83;100.00
47811;BME280;33575;52.600;7.318;2022-09-27T04:14:15;99228.53;;;9.83;99.71
47811;BME280;33575;52.600;7.318;2022-09-27T04:16:45;99227.71;;;9.89;99.77
47811;BME280;33575;52.600;7.318;2022-09-27T04:19:16;99231.42;;;9.94;99.53
47811;BME280;33575;52.600;7.318;2022-09-27T04:21:46;99231.70;;;9.72;99.38
47811;BME280;33575;52.600;7.318;2022-09-27T04:24:17;99232.87;;;9.85;99.41
47811;BME280;33575;52.600;7.318;2022-09-27T04:26:47;99230.60;;;9.82;99.59
47811;BME280;33575;52.600;7.318;2022-09-27T04:29:18;99239.13;;;9.85;99.55
47811;BME280;33575;52.600;7.318;2022-09-27T04:31:48;99242.42;;;9.86;99.25
47811;BME280;33575;52.600;7.318;2022-09-27T04:34:19;99245.77;;;9.90;99.17
47811;BME280;33575;52.600;7.318;2022-09-27T04:36:49;99249.56;;;9.83;99.21
47811;BME280;33575;52.600;7.318;2022-09-27T04:39:20;99250.08;;;9.71;99.26
47811;BME280;33575;52.600;7.318;2022-09-27T04:41:51;99247.25;;;9.68;99.06
47811;BME280;33575;52.600;7.318;2022-09-27T04:44:21;99247.68;;;9.68;99.36
47811;BME280;33575;52.600;7.318;2022-09-27T04:46:52;99246.84;;;9.67;99.27
47811;BME280;33575;52.600;7.318;2022-09-27T04:49:22;99249.19;;;9.71;98.92
47811;BME280;33575;52.600;7.318;2022-09-27T04:51:53;99253.85;;;9.73;98.85
47811;BME280;33575;52.600;7.318;2022-09-27T04:54:24;99256.06;;;9.69;98.87
47811;BME280;33575;52.600;7.318;2022-09-27T04:56:54;99257.42;;;9.63;98.51
47811;BME280;33575;52.600;7.318;2022-09-27T04:59:24;99264.90;;;9.56;99.42
47811;BME280;33575;52.600;7.318;2022-09-27T05:01:55;99264.46;;;9.56;98.98
47811;BME280;33575;52.600;7.318;2022-09-27T05:04:26;99264.80;;;9.47;99.38
47811;BME280;33575;52.600;7.318;2022-09-27T05:06:58;99269.05;;;9.46;99.22
47811;BME280;33575;52.600;7.318;2022-09-27T05:09:27;99270.65;;;9.49;99.45
47811;BME280;33575;52.600;7.318;2022-09-27T05:11:57;99269.76;;;9.40;99.30
47811;BME280;33575;52.600;7.318;2022-09-27T05:14:28;99271.79;;;9.37;99.45
47811;BME280;33575;52.600;7.318;2022-09-27T05:16:59;99273.54;;;9.41;99.28
47811;BME280;33575;52.600;7.318;2022-09-27T05:19:29;99272.51;;;9.46;99.42
47811;BME280;33575;52.600;7.318;2022-09-27T05:22:00;99274.46;;;9.46;99.02
47811;BME280;33575;52.600;7.318;2022-09-27T05:24:30;99275.77;;;9.47;99.41
47811;BME280;33575;52.600;7.318;2022-09-27T05:27:01;99272.37;;;9.48;99.60
47811;BME280;33575;52.600;7.318;2022-09-27T05:29:31;99279.63;;;9.54;99.22
47811;BME280;33575;52.600;7.318;2022-09-27T05:32:03;99282.21;;;9.60;98.64
47811;BME280;33575;52.600;7.318;2022-09-27T05:34:32;99285.73;;;9.57;98.66
47811;BME280;33575;52.600;7.318;2022-09-27T05:37:03;99286.83;;;9.58;98.50
47811;BME280;33575;52.600;7.318;2022-09-27T05:39:34;99287.87;;;9.51;98.23
47811;BME280;33575;52.600;7.318;2022-09-27T05:42:04;99289.70;;;9.53;98.30
47811;BME280;33575;52.600;7.318;2022-09-27T05:44:35;99292.91;;;9.59;98.23
47811;BME280;33575;52.600;7.318;2022-09-27T05:47:06;99289.87;;;9.61;98.23
47811;BME280;33575;52.600;7.318;2022-09-27T05:49:36;99294.98;;;9.70;97.91
47811;BME280;33575;52.600;7.318;2022-09-27T05:52:07;99298.63;;;9.75;97.88
47811;BME280;33575;52.600;7.318;2022-09-27T05:54:37;99299.66;;;9.70;97.72
47811;BME280;33575;52.600;7.318;2022-09-27T05:57:07;99301.80;;;9.61;97.67
47811;BME280;33575;52.600;7.318;2022-09-27T05:59:38;99299.65;;;9.69;98.02
47811;BME280;33575;52.600;7.318;2022-09-27T06:02:10;99295.82;;;9.62;98.03
47811;BME280;33575;52.600;7.318;2022-09-27T06:04:39;99295.82;;;9.61;98.17
47811;BME280;33575;52.600;7.318;2022-09-27T06:07:10;99289.54;;;9.62;98.04
47811;BME280;33575;52.600;7.318;2022-09-27T06:09:40;99297.59;;;9.68;97.88
47811;BME280;33575;52.600;7.318;2022-09-27T06:12:11;99300.04;;;9.69;97.65
47811;BME280;33575;52.600;7.318;2022-09-27T06:14:41;99303.34;;;9.69;97.54
47811;BME280;33575;52.600;7.318;2022-09-27T06:17:12;99303.79;;;9.70;97.24
47811;BME280;33575;52.600;7.318;2022-09-27T06:19:42;99306.33;;;9.60;97.55
47811;BME280;33575;52.600;7.318;2022-09-27T06:22:13;99307.87;;;9.58;97.82
47811;BME280;33575;52.600;7.318;2022-09-27T06:24:44;99311.49;;;9.48;98.48
47811;BME280;33575;52.600;7.318;2022-09-27T06:27:14;99311.58;;;9.61;98.06
47811;BME280;33575;52.600;7.318;2022-09-27T06:29:45;99313.59;;;9.55;98.87
47811;BME280;33575;52.600;7.318;2022-09-27T06:32:15;99313.48;;;9.58;98.45
47811;BME280;33575;52.600;7.318;2022-09-27T06:34:46;99316.86;;;9.55;98.50
47811;BME280;33575;52.600;7.318;2022-09-27T06:37:16;99323.88;;;9.58;98.59
47811;BME280;33575;52.600;7.318;2022-09-27T06:39:47;99328.45;;;9.60;98.74
47811;BME280;33575;52.600;7.318;2022-09-27T06:42:18;99332.04;;;9.70;98.52
47811;BME280;33575;52.600;7.318;2022-09-27T06:44:51;99331.66;;;9.74;98.49
47811;BME280;33575;52.600;7.318;2022-09-27T06:47:19;99331.15;;;9.83;98.07
47811;BME280;33575;52.600;7.318;2022-09-27T06:49:49;99331.44;;;9.77;98.09
47811;BME280;33575;52.600;7.318;2022-09-27T06:52:20;99336.97;;;9.72;97.86
47811;BME280;33575;52.600;7.318;2022-09-27T06:54:50;99340.58;;;9.67;98.39
47811;BME280;33575;52.600;7.318;2022-09-27T06:57:21;99347.76;;;9.54;98.66
47811;BME280;33575;52.600;7.318;2022-09-27T06:59:51;99345.42;;;9.65;98.82
47811;BME280;33575;52.600;7.318;2022-09-27T07:02:22;99352.16;;;9.66;98.90
47811;BME280;33575;52.600;7.318;2022-09-27T07:04:53;99350.88;;;9.73;98.41
47811;BME280;33575;52.600;7.318;2022-09-27T07:07:23;99350.43;;;9.77;98.87
47811;BME280;33575;52.600;7.318;2022-09-27T07:09:54;99352.91;;;9.85;98.59
47811;BME280;33575;52.600;7.318;2022-09-27T07:12:24;99355.33;;;9.89;98.92
47811;BME280;33575;52.600;7.318;2022-09-27T07:14:55;99360.87;;;9.73;100.00
47811;BME280;33575;52.600;7.318;2022-09-27T07:17:25;99364.19;;;9.84;99.77
47811;BME280;33575;52.600;7.318;2022-09-27T07:19:56;99367.33;;;9.97;99.93
47811;BME280;33575;52.600;7.318;2022-09-27T07:22:26;99372.39;;;10.07;99.72
47811;BME280;33575;52.600;7.318;2022-09-27T07:24:57;99373.77;;;10.13;99.16
47811;BME280;33575;52.600;7.318;2022-09-27T07:27:28;99374.10;;;10.17;99.62
47811;BME280;33575;52.600;7.318;2022-09-27T07:29:58;99373.92;;;10.20;99.07
47811;BME280;33575;52.600;7.318;2022-09-27T07:32:29;99377.60;;;10.33;98.92
47811;BME280;33575;52.600;7.318;2022-09-27T07:34:59;99378.11;;;10.43;98.92
47811;BME280;33575;52.600;7.318;2022-09-27T07:37:31;99375.20;;;10.54;99.12
47811;BME280;33575;52.600;7.318;2022-09-27T07:40:02;99368.51;;;10.59;98.45
47811;BME280;33575;52.600;7.318;2022-09-27T07:42:31;99372.11;;;10.54;98.80
47811;BME280;33575;52.600;7.318;2022-09-27T07:45:02;99373.37;;;10.39;99.06
47811;BME280;33575;52.600;7.318;2022-09-27T07:47:32;99376.24;;;10.40;99.09
47811;BME280;33575;52.600;7.318;2022-09-27T07:50:03;99379.04;;;10.38;99.66
47811;BME280;33575;52.600;7.318;2022-09-27T07:52:38;99385.14;;;10.47;99.68
47811;BME280;33575;52.600;7.318;2022-09-27T07:55:04;99388.99;;;10.56;99.15
47811;BME280;33575;52.600;7.318;2022-09-27T07:57:34;99386.58;;;10.70;98.67
47811;BME280;33575;52.600;7.318;2022-09-27T08:00:08;99387.96;;;10.77;98.27
47811;BME280;33575;52.600;7.318;2022-09-27T08:02:35;99389.74;;;10.78;98.10
47811;BME280;33575;52.600;7.318;2022-09-27T08:05:07;99383.10;;;10.71;97.91
47811;BME280;33575;52.600;7.318;2022-09-27T08:07:36;99388.05;;;10.81;99.00
47811;BME280;33575;52.600;7.318;2022-09-27T08:10:08;99396.03;;;10.76;99.50
47811;BME280;33575;52.600;7.318;2022-09-27T08:12:37;99402.05;;;10.87;98.97
47811;BME280;33575;52.600;7.318;2022-09-27T08:15:09;99399.49;;;10.81;97.86
47811;BME280;33575;52.600;7.318;2022-09-27T08:17:38;99403.76;;;10.83;97.17
47811;BME280;33575;52.600;7.318;2022-09-27T08:20:09;99411.83;;;10.49;97.14
47811;BME280;33575;52.600;7.318;2022-09-27T08:22:40;99414.16;;;10.58;97.28
47811;BME280;33575;52.600;7.318;2022-09-27T08:25:10;99420.44;;;10.62;97.19
47811;BME280;33575;52.600;7.318;2022-09-27T08:27:41;99421.61;;;10.62;97.19
47811;BME280;33575;52.600;7.318;2022-09-27T08:30:11;99421.33;;;10.65;98.10
47811;BME280;33575;52.600;7.318;2022-09-27T08:32:41;99419.12;;;10.67;97.06
47811;BME280;33575;52.600;7.318;2022-09-27T08:35:12;99423.84;;;10.82;97.40
47811;BME280;33575;52.600;7.318;2022-09-27T08:37:42;99422.49;;;10.65;96.84
47811;BME280;33575;52.600;7.318;2022-09-27T08:40:13;99424.68;;;10.60;97.76
47811;BME280;33575;52.600;7.318;2022-09-27T08:42:48;99431.12;;;10.75;97.86
47811;BME280;33575;52.600;7.318;2022-09-27T08:45:17;99430.62;;;10.51;97.81
47811;BME280;33575;52.600;7.318;2022-09-27T08:47:46;99434.05;;;10.51;97.32
47811;BME280;33575;52.600;7.318;2022-09-27T08:50:22;99432.44;;;10.50;96.74
47811;BME280;33575;52.600;7.318;2022-09-27T08:52:48;99434.20;;;10.55;99.15
47811;BME280;33575;52.600;7.318;2022-09-27T08:55:21;99435.07;;;10.36;98.65
47811;BME280;33575;52.600;7.318;2022-09-27T08:57:50;99429.62;;;10.53;99.18
47811;BME280;33575;52.600;7.318;2022-09-27T09:00:17;99436.39;;;10.63;98.99
47811;BME280;33575;52.600;7.318;2022-09-27T09:02:48;99434.09;;;10.60;99.03
47811;BME280;33575;52.600;7.318;2022-09-27T09:05:26;99435.27;;;10.55;100.00
47811;BME280;33575;52.600;7.318;2022-09-27T09:08:02;99431.84;;;10.76;99.72
47811;BME280;33575;52.600;7.318;2022-09-27T09:10:29;99433.92;;;10.67;98.95
47811;BME280;33575;52.600;7.318;2022-09-27T09:12:54;99438.28;;;10.74;98.42
47811;BME280;33575;52.600;7.318;2022-09-27T09:15:26;99441.74;;;10.78;97.89
47811;BME280;33575;52.600;7.318;2022-09-27T09:17:59;99443.60;;;10.87;97.96
47811;BME280;33575;52.600;7.318;2022-09-27T09:20:30;99440.93;;;10.95;97.60
47811;BME280;33575;52.600;7.318;2022-09-27T09:23:01;99437.27;;;10.98;98.32
47811;BME280;33575;52.600;7.318;2022-09-27T09:25:27;99442.11;;;11.13;97.60
47811;BME280;33575;52.600;7.318;2022-09-27T09:28:02;99440.47;;;11.18;97.50
47811;BME280;33575;52.600;7.318;2022-09-27T09:30:24;99441.36;;;11.14;98.07
47811;BME280;33575;52.600;7.318;2022-09-27T09:33:03;99439.57;;;11.24;98.47
47811;BME280;33575;52.600;7.318;2022-09-27T09:35:26;99438.25;;;11.34;99.21
47811;BME280;33575;52.600;7.318;2022-09-27T09:37:56;99432.89;;;11.43;99.01
47811;BME280;33575;52.600;7.318;2022-09-27T09:40:28;99429.23;;;11.49;99.70
47811;BME280;33575;52.600;7.318;2022-09-27T09:42:59;99425.42;;;11.61;99.33
47811;BME280;33575;52.600;7.318;2022-09-27T09:45:29;99424.64;;;11.67;98.76
47811;BME280;33575;52.600;7.318;2022-09-27T09:48:01;99423.85;;;11.63;97.64
47811;BME280;33575;52.600;7.318;2022-09-27T09:50:29;99420.15;;;11.57;97.80
47811;BME280;33575;52.600;7.318;2022-09-27T09:53:03;99423.05;;;11.64;100.00
47811;BME280;33575;52.600;7.318;2022-09-27T09:55:32;99425.93;;;11.60;99.64
47811;BME280;33575;52.600;7.318;2022-09-27T09:58:03;99424.85;;;11.74;98.92
47811;BME280;33575;52.600;7.318;2022-09-27T10:00:29;99427.30;;;11.77;98.55
47811;BME280;33575;52.600;7.318;2022-09-27T10:02:59;99427.95;;;11.61;95.92
47811;BME280;33575;52.600;7.318;2022-09-27T10:05:30;99436.70;;;11.48;94.02
47811;BME280;33575;52.600;7.318;2022-09-27T10:08:03;99441.99;;;11.28;92.23
47811;BME280;33575;52.600;7.318;2022-09-27T10:10:31;99440.27;;;11.31;94.30
47811;BME280;33575;52.600;7.318;2022-09-27T10:13:02;99443.38;;;11.32;94.25
47811;BME280;33575;52.600;7.318;2022-09-27T10:15:33;99445.48;;;11.31;95.03
47811;BME280;33575;52.600;7.318;2022-09-27T10:18:02;99455.42;;;11.07;94.24
47811;BME280;33575;52.600;7.318;2022-09-27T10:20:37;99454.84;;;10.91;95.39
47811;BME280;33575;52.600;7.318;2022-09-27T10:23:10;99449.17;;;10.87;95.60
47811;BME280;33575;52.600;7.318;2022-09-27T10:25:44;99449.85;;;10.86;95.31
47811;BME280;33575;52.600;7.318;2022-09-27T10:28:04;99449.64;;;10.77;96.43
47811;BME280;33575;52.600;7.318;2022-09-27T10:30:36;99450.13;;;10.78;96.30
47811;BME280;33575;52.600;7.318;2022-09-27T10:33:13;99447.10;;;10.70;96.85
47811;BME280;33575;52.600;7.318;2022-09-27T10:35:38;99439.69;;;10.68;96.71
47811;BME280;33575;52.600;7.318;2022-09-27T10:40:37;99436.57;;;10.68;96.60
47811;BME280;33575;52.600;7.318;2022-09-27T10:45:38;99435.32;;;10.75;96.75
47811;BME280;33575;52.600;7.318;2022-09-27T10:48:17;99431.52;;;10.81;96.92
47811;BME280;33575;52.600;7.318;2022-09-27T10:50:55;99431.74;;;10.88;96.93
47811;BME280;33575;52.600;7.318;2022-09-27T10:53:12;99423.73;;;10.97;96.87
47811;BME280;33575;52.600;7.318;2022-09-27T10:55:42;99422.91;;;11.01;96.90
47811;BME280;33575;52.600;7.318;2022-09-27T10:58:17;99426.68;;;11.12;96.85
47811;BME280;33575;52.600;7.318;2022-09-27T11:00:41;99428.44;;;11.18;96.79
47811;BME280;33575;52.600;7.318;2022-09-27T11:03:14;99433.97;;;11.26;96.99
47811;BME280;33575;52.600;7.318;2022-09-27T11:05:42;99430.09;;;11.30;97.29
47811;BME280;33575;52.600;7.318;2022-09-27T11:08:20;99431.10;;;11.37;96.97
47811;BME280;33575;52.600;7.318;2022-09-27T11:10:55;99428.48;;;11.39;96.47
47811;BME280;33575;52.600;7.318;2022-09-27T11:13:15;99426.41;;;11.35;97.44
47811;BME280;33575;52.600;7.318;2022-09-27T11:15:56;99428.20;;;11.25;96.85
47811;BME280;33575;52.600;7.318;2022-09-27T11:18:22;99434.65;;;11.31;97.09
47811;BME280;33575;52.600;7.318;2022-09-27T11:20:50;99433.36;;;11.28;97.64
47811;BME280;33575;52.600;7.318;2022-09-27T11:23:25;99431.16;;;11.17;97.74
47811;BME280;33575;52.600;7.318;2022-09-27T11:25:57;99434.50;;;11.23;97.83
47811;BME280;33575;52.600;7.318;2022-09-27T11:28:27;99433.29;;;11.23;97.84
47811;BME280;33575;52.600;7.318;2022-09-27T11:30:55;99432.24;;;11.26;98.96
47811;BME280;33575;52.600;7.318;2022-09-27T11:33:27;99427.98;;;11.30;98.18
47811;BME280;33575;52.600;7.318;2022-09-27T11:35:58;99429.34;;;11.27;99.68
47811;BME280;33575;52.600;7.318;2022-09-27T11:38:27;99431.33;;;11.15;98.97
47811;BME280;33575;52.600;7.318;2022-09-27T11:41:03;99430.24;;;11.31;100.00
47811;BME280;33575;52.600;7.318;2022-09-27T11:43:30;99428.12;;;11.30;100.00
47811;BME280;33575;52.600;7.318;2022-09-27T11:46:02;99427.93;;;11.28;100.00
47811;BME280;33575;52.600;7.318;2022-09-27T11:48:33;99427.08;;;11.32;99.38
47811;BME280;33575;52.600;7.318;2022-09-27T11:51:05;99427.69;;;11.09;96.39
47811;BME280;33575;52.600;7.318;2022-09-27T11:53:33;99430.40;;;11.19;97.75
47811;BME280;33575;52.600;7.318;2022-09-27T11:56:01;99431.21;;;11.26;98.27
47811;BME280;33575;52.600;7.318;2022-09-27T11:58:29;99425.60;;;11.30;98.14
47811;BME280;33575;52.600;7.318;2022-09-27T12:01:03;99424.05;;;11.34;97.82
47811;BME280;33575;52.600;7.318;2022-09-27T12:06:06;99418.84;;;11.28;94.32
47811;BME280;33575;52.600;7.318;2022-09-27T12:08:34;99414.77;;;11.37;97.15
47811;BME280;33575;52.600;7.318;2022-09-27T12:11:00;99416.48;;;11.37;97.84
47811;BME280;33575;52.600;7.318;2022-09-27T12:13:33;99415.88;;;11.25;95.94
47811;BME280;33575;52.600;7.318;2022-09-27T12:15:57;99416.69;;;11.39;94.04
47811;BME280;33575;52.600;7.318;2022-09-27T12:18:29;99418.24;;;11.30;95.08
47811;BME280;33575;52.600;7.318;2022-09-27T12:21:00;99419.49;;;11.17;94.12
47811;BME280;33575;52.600;7.318;2022-09-27T12:23:33;99419.92;;;11.35;96.11
47811;BME280;33575;52.600;7.318;2022-09-27T12:26:03;99419.23;;;11.62;97.81
47811;BME280;33575;52.600;7.318;2022-09-27T12:28:34;99413.59;;;11.66;96.51
47811;BME280;33575;52.600;7.318;2022-09-27T12:31:10;99419.93;;;11.59;95.19
47811;BME280;33575;52.600;7.318;2022-09-27T12:33:35;99427.36;;;11.43;94.67
47811;BME280;33575;52.600;7.318;2022-09-27T12:36:05;99428.31;;;11.42;95.42
47811;BME280;33575;52.600;7.318;2022-09-27T12:38:36;99431.30;;;11.31;94.95
47811;BME280;33575;52.600;7.318;2022-09-27T12:41:04;99427.16;;;11.44;95.59
47811;BME280;33575;52.600;7.318;2022-09-27T12:43:32;99428.00;;;11.52;95.24
47811;BME280;33575;52.600;7.318;2022-09-27T12:46:10;99433.71;;;11.44;96.24
47811;BME280;33575;52.600;7.318;2022-09-27T12:48:41;99439.68;;;11.55;96.06
47811;BME280;33575;52.600;7.318;2022-09-27T12:51:07;99444.55;;;11.62;95.66
47811;BME280;33575;52.600;7.318;2022-09-27T12:53:42;99441.46;;;11.64;95.24
47811;BME280;33575;52.600;7.318;2022-09-27T13:01:14;99445.52;;;11.80;97.46
47811;BME280;33575;52.600;7.318;2022-09-27T13:03:46;99441.36;;;11.85;94.85
47811;BME280;33575;52.600;7.318;2022-09-27T13:08:48;99441.31;;;11.88;95.59
47811;BME280;33575;52.600;7.318;2022-09-27T13:11:13;99441.63;;;11.85;92.72
47811;BME280;33575;52.600;7.318;2022-09-27T13:13:38;99438.26;;;11.81;90.99
47811;BME280;33575;52.600;7.318;2022-09-27T13:16:09;99437.03;;;11.81;91.45
47811;BME280;33575;52.600;7.318;2022-09-27T13:21:09;99437.53;;;11.69;90.62
47811;BME280;33575;52.600;7.318;2022-09-27T13:23:48;99437.68;;;11.76;91.05
47811;BME280;33575;52.600;7.318;2022-09-27T13:31:59;99438.16;;;11.80;91.30
47811;BME280;33575;52.600;7.318;2022-09-27T13:33:45;99434.58;;;11.77;91.82
47811;BME280;33575;52.600;7.318;2022-09-27T13:36:20;99439.87;;;11.77;90.98
47811;BME280;33575;52.600;7.318;2022-09-27T13:38:51;99439.55;;;11.75;90.60
47811;BME280;33575;52.600;7.318;2022-09-27T13:41:19;99446.94;;;11.80;90.63
47811;BME280;33575;52.600;7.318;2022-09-27T13:43:51;99439.65;;;11.87;89.32
47811;BME280;33575;52.600;7.318;2022-09-27T13:46:17;99445.89;;;11.91;88.65
47811;BME280;33575;52.600;7.318;2022-09-27T13:48:50;99442.85;;;11.79;91.18